sensor_id;sensor_type;location;lat;lon;timestamp;P1;durP1;ratioP1;P2;durP2;ratioP2
12383;SDS011;6256;63.808;20.336;2022-08-01T00:01:51;24.77;;;7.75;;
12383;SDS011;6256;63.808;20.336;2022-08-01T00:04:16;20.02;;;6.97;;
12383;SDS011;6256;63.808;20.336;2022-08-01T00:06:42;14.23;;;6.90;;
12383;SDS011;6256;63.808;20.336;2022-08-01T00:09:08;20.85;;;7.25;;
12383;SDS011;6256;63.808;20.336;2022-08-01T00:11:34;12.68;;;6.05;;
12383;SDS011;6256;63.808;20.336;2022-08-01T00:13:59;14.50;;;6.15;;
12383;SDS011;6256;63.808;20.336;2022-08-01T00:16:25;29.90;;;7.22;;
12383;SDS011;6256;63.808;20.336;2022-08-01T00:18:51;13.10;;;7.18;;
12383;SDS011;6256;63.808;20.336;2022-08-01T00:21:17;11.20;;;6.57;;
12383;SDS011;6256;63.808;20.336;2022-08-01T00:23:43;10.95;;;6.55;;
12383;SDS011;6256;63.808;20.336;2022-08-01T00:26:11;17.38;;;7.05;;
12383;SDS011;6256;63.808;20.336;2022-08-01T00:28:43;12.02;;;6.93;;
12383;SDS011;6256;63.808;20.336;2022-08-01T00:31:08;14.70;;;6.72;;
12383;SDS011;6256;63.808;20.336;2022-08-01T00:33:34;10.80;;;6.22;;
12383;SDS011;6256;63.808;20.336;2022-08-01T00:36:00;11.95;;;6.32;;
12383;SDS011;6256;63.808;20.336;2022-08-01T00:38:26;10.27;;;6.60;;
12383;SDS011;6256;63.808;20.336;2022-08-01T00:40:51;9.35;;;5.93;;
12383;SDS011;6256;63.808;20.336;2022-08-01T00:43:17;12.00;;;6.53;;
12383;SDS011;6256;63.808;20.336;2022-08-01T00:45:43;13.40;;;6.45;;
12383;SDS011;6256;63.808;20.336;2022-08-01T00:48:08;12.73;;;6.10;;
12383;SDS011;6256;63.808;20.336;2022-08-01T00:50:34;10.68;;;6.13;;
12383;SDS011;6256;63.808;20.336;2022-08-01T00:53:01;8.63;;;6.15;;
12383;SDS011;6256;63.808;20.336;2022-08-01T00:55:28;12.15;;;6.30;;
12383;SDS011;6256;63.808;20.336;2022-08-01T00:57:55;10.32;;;5.85;;
12383;SDS011;6256;63.808;20.336;2022-08-01T01:00:22;14.23;;;6.53;;
12383;SDS011;6256;63.808;20.336;2022-08-01T01:02:48;12.70;;;6.55;;
12383;SDS011;6256;63.808;20.336;2022-08-01T01:05:13;11.05;;;5.72;;
12383;SDS011;6256;63.808;20.336;2022-08-01T01:10:32;11.60;;;6.18;;
12383;SDS011;6256;63.808;20.336;2022-08-01T01:16:10;15.73;;;5.28;;
12383;SDS011;6256;63.808;20.336;2022-08-01T01:18:48;7.40;;;4.95;;
12383;SDS011;6256;63.808;20.336;2022-08-01T01:29:38;9.70;;;5.00;;
12383;SDS011;6256;63.808;20.336;2022-08-01T01:34:47;14.68;;;5.13;;
12383;SDS011;6256;63.808;20.336;2022-08-01T01:37:19;6.00;;;4.82;;
12383;SDS011;6256;63.808;20.336;2022-08-01T01:39:48;6.63;;;4.93;;
12383;SDS011;6256;63.808;20.336;2022-08-01T01:42:15;5.57;;;4.72;;
12383;SDS011;6256;63.808;20.336;2022-08-01T01:44:46;7.15;;;5.13;;
12383;SDS011;6256;63.808;20.336;2022-08-01T01:47:13;5.85;;;5.10;;
12383;SDS011;6256;63.808;20.336;2022-08-01T01:49:39;5.22;;;4.50;;
12383;SDS011;6256;63.808;20.336;2022-08-01T01:52:08;7.05;;;5.18;;
12383;SDS011;6256;63.808;20.336;2022-08-01T01:54:37;5.93;;;4.50;;
12383;SDS011;6256;63.808;20.336;2022-08-01T01:57:08;5.55;;;4.78;;
12383;SDS011;6256;63.808;20.336;2022-08-01T01:59:36;4.82;;;4.40;;
12383;SDS011;6256;63.808;20.336;2022-08-01T02:02:05;6.25;;;4.53;;
12383;SDS011;6256;63.808;20.336;2022-08-01T02:04:32;5.45;;;4.85;;
12383;SDS011;6256;63.808;20.336;2022-08-01T02:07:03;4.95;;;4.45;;
12383;SDS011;6256;63.808;20.336;2022-08-01T02:09:32;6.63;;;4.88;;
12383;SDS011;6256;63.808;20.336;2022-08-01T02:12:00;6.72;;;5.43;;
12383;SDS011;6256;63.808;20.336;2022-08-01T02:14:26;5.40;;;4.20;;
12383;SDS011;6256;63.808;20.336;2022-08-01T02:16:54;4.97;;;4.45;;
12383;SDS011;6256;63.808;20.336;2022-08-01T02:19:22;5.38;;;4.60;;
12383;SDS011;6256;63.808;20.336;2022-08-01T02:21:52;4.93;;;4.43;;
12383;SDS011;6256;63.808;20.336;2022-08-01T02:27:04;4.38;;;3.97;;
12383;SDS011;6256;63.808;20.336;2022-08-01T02:29:45;4.70;;;4.30;;
12383;SDS011;6256;63.808;20.336;2022-08-01T02:32:20;7.88;;;4.63;;
12383;SDS011;6256;63.808;20.336;2022-08-01T02:34:50;5.70;;;4.68;;
12383;SDS011;6256;63.808;20.336;2022-08-01T02:37:18;5.47;;;4.40;;
12383;SDS011;6256;63.808;20.336;2022-08-01T02:39:46;4.77;;;4.27;;
12383;SDS011;6256;63.808;20.336;2022-08-01T02:42:15;4.83;;;4.33;;
12383;SDS011;6256;63.808;20.336;2022-08-01T02:44:44;4.43;;;3.95;;
12383;SDS011;6256;63.808;20.336;2022-08-01T02:47:12;4.80;;;4.40;;
12383;SDS011;6256;63.808;20.336;2022-08-01T02:49:42;6.70;;;4.47;;
12383;SDS011;6256;63.808;20.336;2022-08-01T02:52:10;4.60;;;4.17;;
12383;SDS011;6256;63.808;20.336;2022-08-01T02:54:38;4.50;;;4.10;;
12383;SDS011;6256;63.808;20.336;2022-08-01T02:57:07;5.32;;;4.70;;
12383;SDS011;6256;63.808;20.336;2022-08-01T02:59:34;5.77;;;5.17;;
12383;SDS011;6256;63.808;20.336;2022-08-01T03:02:03;5.32;;;4.70;;
12383;SDS011;6256;63.808;20.336;2022-08-01T03:04:31;6.60;;;4.80;;
12383;SDS011;6256;63.808;20.336;2022-08-01T03:06:59;5.83;;;4.60;;
12383;SDS011;6256;63.808;20.336;2022-08-01T03:09:27;6.27;;;4.40;;
12383;SDS011;6256;63.808;20.336;2022-08-01T03:11:57;6.23;;;4.30;;
12383;SDS011;6256;63.808;20.336;2022-08-01T03:14:26;5.63;;;4.80;;
12383;SDS011;6256;63.808;20.336;2022-08-01T03:16:53;4.60;;;4.20;;
12383;SDS011;6256;63.808;20.336;2022-08-01T03:19:22;3.97;;;3.67;;
12383;SDS011;6256;63.808;20.336;2022-08-01T03:21:51;4.80;;;4.30;;
12383;SDS011;6256;63.808;20.336;2022-08-01T03:24:18;5.30;;;4.33;;
12383;SDS011;6256;63.808;20.336;2022-08-01T03:26:46;5.33;;;4.47;;
12383;SDS011;6256;63.808;20.336;2022-08-01T03:29:15;4.73;;;4.33;;
12383;SDS011;6256;63.808;20.336;2022-08-01T03:31:45;5.00;;;3.93;;
12383;SDS011;6256;63.808;20.336;2022-08-01T03:34:12;4.40;;;3.80;;
12383;SDS011;6256;63.808;20.336;2022-08-01T03:36:43;4.80;;;4.40;;
12383;SDS011;6256;63.808;20.336;2022-08-01T03:39:17;4.70;;;4.13;;
12383;SDS011;6256;63.808;20.336;2022-08-01T03:41:46;4.88;;;4.10;;
12383;SDS011;6256;63.808;20.336;2022-08-01T03:44:20;4.97;;;4.57;;
12383;SDS011;6256;63.808;20.336;2022-08-01T03:46:52;4.63;;;4.22;;
12383;SDS011;6256;63.808;20.336;2022-08-01T03:49:23;6.10;;;4.10;;
12383;SDS011;6256;63.808;20.336;2022-08-01T03:51:55;5.18;;;4.68;;
12383;SDS011;6256;63.808;20.336;2022-08-01T03:54:24;6.30;;;4.60;;
12383;SDS011;6256;63.808;20.336;2022-08-01T03:56:53;5.10;;;4.57;;
12383;SDS011;6256;63.808;20.336;2022-08-01T03:59:19;5.15;;;4.65;;
12383;SDS011;6256;63.808;20.336;2022-08-01T04:01:46;5.53;;;4.70;;
12383;SDS011;6256;63.808;20.336;2022-08-01T04:04:13;5.68;;;4.88;;
12383;SDS011;6256;63.808;20.336;2022-08-01T04:06:40;5.22;;;4.82;;
12383;SDS011;6256;63.808;20.336;2022-08-01T04:09:06;4.70;;;4.30;;
12383;SDS011;6256;63.808;20.336;2022-08-01T04:11:33;7.10;;;4.53;;
12383;SDS011;6256;63.808;20.336;2022-08-01T04:13:58;5.28;;;4.32;;
12383;SDS011;6256;63.808;20.336;2022-08-01T04:16:24;5.28;;;4.78;;
12383;SDS011;6256;63.808;20.336;2022-08-01T04:18:50;5.43;;;4.93;;
12383;SDS011;6256;63.808;20.336;2022-08-01T04:21:21;6.25;;;4.90;;
12383;SDS011;6256;63.808;20.336;2022-08-01T04:23:49;6.53;;;5.43;;
12383;SDS011;6256;63.808;20.336;2022-08-01T04:26:18;5.40;;;4.90;;
12383;SDS011;6256;63.808;20.336;2022-08-01T04:28:45;6.00;;;4.88;;
12383;SDS011;6256;63.808;20.336;2022-08-01T04:31:11;5.90;;;5.30;;
12383;SDS011;6256;63.808;20.336;2022-08-01T04:33:42;5.03;;;4.53;;
12383;SDS011;6256;63.808;20.336;2022-08-01T04:36:12;5.88;;;4.93;;
12383;SDS011;6256;63.808;20.336;2022-08-01T04:38:39;6.35;;;5.43;;
12383;SDS011;6256;63.808;20.336;2022-08-01T04:41:09;6.22;;;5.15;;
12383;SDS011;6256;63.808;20.336;2022-08-01T04:43:36;8.57;;;4.70;;
12383;SDS011;6256;63.808;20.336;2022-08-01T04:46:02;6.18;;;4.93;;
12383;SDS011;6256;63.808;20.336;2022-08-01T04:48:29;5.72;;;4.78;;
12383;SDS011;6256;63.808;20.336;2022-08-01T04:50:58;5.18;;;4.75;;
12383;SDS011;6256;63.808;20.336;2022-08-01T04:53:24;5.47;;;4.70;;
12383;SDS011;6256;63.808;20.336;2022-08-01T04:55:51;6.35;;;5.43;;
12383;SDS011;6256;63.808;20.336;2022-08-01T04:58:16;5.75;;;5.13;;
12383;SDS011;6256;63.808;20.336;2022-08-01T05:00:43;7.07;;;5.22;;
12383;SDS011;6256;63.808;20.336;2022-08-01T05:03:08;5.63;;;5.05;;
12383;SDS011;6256;63.808;20.336;2022-08-01T05:05:34;6.65;;;4.90;;
12383;SDS011;6256;63.808;20.336;2022-08-01T05:08:00;6.28;;;4.65;;
12383;SDS011;6256;63.808;20.336;2022-08-01T05:10:26;6.53;;;5.10;;
12383;SDS011;6256;63.808;20.336;2022-08-01T05:12:52;5.65;;;4.22;;
12383;SDS011;6256;63.808;20.336;2022-08-01T05:15:18;5.53;;;4.10;;
12383;SDS011;6256;63.808;20.336;2022-08-01T05:17:44;5.05;;;4.32;;
12383;SDS011;6256;63.808;20.336;2022-08-01T05:20:10;5.00;;;4.50;;
12383;SDS011;6256;63.808;20.336;2022-08-01T05:22:37;6.30;;;4.85;;
12383;SDS011;6256;63.808;20.336;2022-08-01T05:25:03;4.63;;;4.22;;
12383;SDS011;6256;63.808;20.336;2022-08-01T05:27:32;4.85;;;4.35;;
12383;SDS011;6256;63.808;20.336;2022-08-01T05:30:02;4.25;;;3.85;;
12383;SDS011;6256;63.808;20.336;2022-08-01T05:32:28;4.97;;;4.40;;
12383;SDS011;6256;63.808;20.336;2022-08-01T05:34:55;4.43;;;4.00;;
12383;SDS011;6256;63.808;20.336;2022-08-01T05:37:20;5.13;;;3.75;;
12383;SDS011;6256;63.808;20.336;2022-08-01T05:39:46;4.60;;;3.92;;
12383;SDS011;6256;63.808;20.336;2022-08-01T05:42:12;3.83;;;3.38;;
12383;SDS011;6256;63.808;20.336;2022-08-01T05:44:37;4.40;;;3.63;;
12383;SDS011;6256;63.808;20.336;2022-08-01T05:47:03;4.45;;;3.47;;
12383;SDS011;6256;63.808;20.336;2022-08-01T05:49:29;3.53;;;3.22;;
12383;SDS011;6256;63.808;20.336;2022-08-01T05:51:55;3.70;;;3.35;;
12383;SDS011;6256;63.808;20.336;2022-08-01T05:54:20;4.15;;;3.53;;
12383;SDS011;6256;63.808;20.336;2022-08-01T05:56:46;3.85;;;3.45;;
12383;SDS011;6256;63.808;20.336;2022-08-01T05:59:12;3.67;;;3.00;;
12383;SDS011;6256;63.808;20.336;2022-08-01T06:01:37;3.72;;;2.83;;
12383;SDS011;6256;63.808;20.336;2022-08-01T06:04:03;3.80;;;3.17;;
12383;SDS011;6256;63.808;20.336;2022-08-01T06:06:29;3.10;;;2.67;;
12383;SDS011;6256;63.808;20.336;2022-08-01T06:08:54;5.47;;;3.10;;
12383;SDS011;6256;63.808;20.336;2022-08-01T06:11:20;3.17;;;2.88;;
12383;SDS011;6256;63.808;20.336;2022-08-01T06:13:46;3.72;;;3.00;;
12383;SDS011;6256;63.808;20.336;2022-08-01T06:16:12;4.20;;;2.92;;
12383;SDS011;6256;63.808;20.336;2022-08-01T06:18:37;3.67;;;3.38;;
12383;SDS011;6256;63.808;20.336;2022-08-01T06:21:03;4.18;;;2.58;;
12383;SDS011;6256;63.808;20.336;2022-08-01T06:23:29;3.17;;;2.85;;
12383;SDS011;6256;63.808;20.336;2022-08-01T06:25:55;3.53;;;2.95;;
12383;SDS011;6256;63.808;20.336;2022-08-01T06:28:21;3.90;;;3.13;;
12383;SDS011;6256;63.808;20.336;2022-08-01T06:30:47;3.67;;;2.75;;
12383;SDS011;6256;63.808;20.336;2022-08-01T06:33:12;4.43;;;2.95;;
12383;SDS011;6256;63.808;20.336;2022-08-01T06:35:39;3.38;;;3.08;;
12383;SDS011;6256;63.808;20.336;2022-08-01T06:38:05;3.25;;;2.60;;
12383;SDS011;6256;63.808;20.336;2022-08-01T06:40:30;3.10;;;2.80;;
12383;SDS011;6256;63.808;20.336;2022-08-01T06:42:56;2.97;;;2.78;;
12383;SDS011;6256;63.808;20.336;2022-08-01T06:45:22;3.95;;;2.75;;
12383;SDS011;6256;63.808;20.336;2022-08-01T06:47:49;3.78;;;2.70;;
12383;SDS011;6256;63.808;20.336;2022-08-01T06:50:15;3.78;;;2.42;;
12383;SDS011;6256;63.808;20.336;2022-08-01T06:52:41;3.42;;;2.30;;
12383;SDS011;6256;63.808;20.336;2022-08-01T06:55:07;3.03;;;2.70;;
12383;SDS011;6256;63.808;20.336;2022-08-01T06:57:33;3.03;;;2.50;;
12383;SDS011;6256;63.808;20.336;2022-08-01T07:00:05;2.30;;;2.20;;
12383;SDS011;6256;63.808;20.336;2022-08-01T07:02:35;2.72;;;2.50;;
12383;SDS011;6256;63.808;20.336;2022-08-01T07:05:01;3.05;;;2.72;;
12383;SDS011;6256;63.808;20.336;2022-08-01T07:07:29;3.40;;;2.40;;
12383;SDS011;6256;63.808;20.336;2022-08-01T07:09:55;3.63;;;2.60;;
12383;SDS011;6256;63.808;20.336;2022-08-01T07:12:21;2.60;;;2.40;;
12383;SDS011;6256;63.808;20.336;2022-08-01T07:14:47;3.08;;;2.58;;
12383;SDS011;6256;63.808;20.336;2022-08-01T07:17:13;2.83;;;2.55;;
12383;SDS011;6256;63.808;20.336;2022-08-01T07:19:38;3.63;;;3.17;;
12383;SDS011;6256;63.808;20.336;2022-08-01T07:22:04;3.00;;;2.80;;
12383;SDS011;6256;63.808;20.336;2022-08-01T07:24:30;4.15;;;2.60;;
12383;SDS011;6256;63.808;20.336;2022-08-01T07:26:56;2.80;;;2.50;;
12383;SDS011;6256;63.808;20.336;2022-08-01T07:29:25;3.75;;;2.70;;
12383;SDS011;6256;63.808;20.336;2022-08-01T07:31:52;3.30;;;2.53;;
12383;SDS011;6256;63.808;20.336;2022-08-01T07:34:19;2.70;;;2.50;;
12383;SDS011;6256;63.808;20.336;2022-08-01T07:36:45;2.95;;;2.60;;
12383;SDS011;6256;63.808;20.336;2022-08-01T07:39:10;3.03;;;2.55;;
12383;SDS011;6256;63.808;20.336;2022-08-01T07:41:36;3.05;;;2.53;;
12383;SDS011;6256;63.808;20.336;2022-08-01T07:44:02;2.92;;;2.60;;
12383;SDS011;6256;63.808;20.336;2022-08-01T07:46:28;3.00;;;2.47;;
12383;SDS011;6256;63.808;20.336;2022-08-01T07:48:55;3.40;;;2.45;;
12383;SDS011;6256;63.808;20.336;2022-08-01T07:51:21;2.72;;;2.53;;
12383;SDS011;6256;63.808;20.336;2022-08-01T07:53:46;4.90;;;3.03;;
12383;SDS011;6256;63.808;20.336;2022-08-01T07:56:12;4.05;;;3.38;;
12383;SDS011;6256;63.808;20.336;2022-08-01T07:58:38;3.42;;;3.13;;
12383;SDS011;6256;63.808;20.336;2022-08-01T08:01:04;4.20;;;3.00;;
12383;SDS011;6256;63.808;20.336;2022-08-01T08:03:29;4.25;;;3.08;;
12383;SDS011;6256;63.808;20.336;2022-08-01T08:05:55;4.93;;;3.10;;
12383;SDS011;6256;63.808;20.336;2022-08-01T08:08:21;4.13;;;2.92;;
12383;SDS011;6256;63.808;20.336;2022-08-01T08:10:47;3.40;;;3.10;;
12383;SDS011;6256;63.808;20.336;2022-08-01T08:13:13;2.97;;;2.78;;
12383;SDS011;6256;63.808;20.336;2022-08-01T08:15:38;3.83;;;2.92;;
12383;SDS011;6256;63.808;20.336;2022-08-01T08:18:04;3.80;;;3.20;;
12383;SDS011;6256;63.808;20.336;2022-08-01T08:20:30;3.67;;;3.38;;
12383;SDS011;6256;63.808;20.336;2022-08-01T08:22:56;3.22;;;2.92;;
12383;SDS011;6256;63.808;20.336;2022-08-01T08:25:23;4.43;;;3.22;;
12383;SDS011;6256;63.808;20.336;2022-08-01T08:27:50;2.78;;;2.40;;
12383;SDS011;6256;63.808;20.336;2022-08-01T08:30:16;2.90;;;2.60;;
12383;SDS011;6256;63.808;20.336;2022-08-01T08:32:42;3.35;;;2.85;;
12383;SDS011;6256;63.808;20.336;2022-08-01T08:35:08;3.03;;;2.70;;
12383;SDS011;6256;63.808;20.336;2022-08-01T08:37:34;2.75;;;2.55;;
12383;SDS011;6256;63.808;20.336;2022-08-01T08:40:01;2.75;;;2.55;;
12383;SDS011;6256;63.808;20.336;2022-08-01T08:42:28;2.70;;;2.50;;
12383;SDS011;6256;63.808;20.336;2022-08-01T08:44:54;2.30;;;2.10;;
12383;SDS011;6256;63.808;20.336;2022-08-01T08:47:20;3.38;;;2.47;;
12383;SDS011;6256;63.808;20.336;2022-08-01T08:49:48;2.83;;;2.53;;
12383;SDS011;6256;63.808;20.336;2022-08-01T08:52:17;2.97;;;2.50;;
12383;SDS011;6256;63.808;20.336;2022-08-01T08:54:45;3.38;;;2.70;;
12383;SDS011;6256;63.808;20.336;2022-08-01T08:57:13;3.40;;;2.45;;
12383;SDS011;6256;63.808;20.336;2022-08-01T08:59:39;3.08;;;2.88;;
12383;SDS011;6256;63.808;20.336;2022-08-01T09:02:07;4.50;;;2.85;;
12383;SDS011;6256;63.808;20.336;2022-08-01T09:04:35;3.33;;;2.80;;
12383;SDS011;6256;63.808;20.336;2022-08-01T09:07:03;4.53;;;2.42;;
12383;SDS011;6256;63.808;20.336;2022-08-01T09:09:29;3.03;;;2.80;;
12383;SDS011;6256;63.808;20.336;2022-08-01T09:11:55;2.92;;;2.65;;
12383;SDS011;6256;63.808;20.336;2022-08-01T09:14:21;2.90;;;2.47;;
12383;SDS011;6256;63.808;20.336;2022-08-01T09:17:01;3.72;;;2.60;;
12383;SDS011;6256;63.808;20.336;2022-08-01T09:19:35;2.28;;;2.05;;
12383;SDS011;6256;63.808;20.336;2022-08-01T09:22:01;2.40;;;2.25;;
12383;SDS011;6256;63.808;20.336;2022-08-01T09:24:29;4.20;;;2.58;;
12383;SDS011;6256;63.808;20.336;2022-08-01T09:26:56;2.72;;;2.53;;
12383;SDS011;6256;63.808;20.336;2022-08-01T09:29:24;3.15;;;2.83;;
12383;SDS011;6256;63.808;20.336;2022-08-01T09:31:54;5.30;;;2.60;;
12383;SDS011;6256;63.808;20.336;2022-08-01T09:34:28;2.60;;;2.20;;
12383;SDS011;6256;63.808;20.336;2022-08-01T09:36:56;5.38;;;2.90;;
12383;SDS011;6256;63.808;20.336;2022-08-01T09:39:25;2.60;;;2.40;;
12383;SDS011;6256;63.808;20.336;2022-08-01T09:42:18;3.88;;;2.40;;
12383;SDS011;6256;63.808;20.336;2022-08-01T09:44:49;2.55;;;2.25;;
12383;SDS011;6256;63.808;20.336;2022-08-01T09:47:15;2.15;;;1.95;;
12383;SDS011;6256;63.808;20.336;2022-08-01T09:49:45;4.03;;;2.25;;
12383;SDS011;6256;63.808;20.336;2022-08-01T09:52:18;2.58;;;1.92;;
12383;SDS011;6256;63.808;20.336;2022-08-01T09:54:54;2.30;;;2.10;;
12383;SDS011;6256;63.808;20.336;2022-08-01T09:57:22;2.33;;;2.13;;
12383;SDS011;6256;63.808;20.336;2022-08-01T09:59:50;2.55;;;1.85;;
12383;SDS011;6256;63.808;20.336;2022-08-01T10:02:28;2.55;;;2.25;;
12383;SDS011;6256;63.808;20.336;2022-08-01T10:05:12;3.15;;;1.88;;
12383;SDS011;6256;63.808;20.336;2022-08-01T10:07:59;2.03;;;1.83;;
12383;SDS011;6256;63.808;20.336;2022-08-01T10:10:24;2.00;;;1.88;;
12383;SDS011;6256;63.808;20.336;2022-08-01T10:12:51;2.67;;;2.40;;
12383;SDS011;6256;63.808;20.336;2022-08-01T10:15:17;3.92;;;1.80;;
12383;SDS011;6256;63.808;20.336;2022-08-01T10:17:46;3.75;;;2.10;;
12383;SDS011;6256;63.808;20.336;2022-08-01T10:20:30;2.17;;;1.98;;
12383;SDS011;6256;63.808;20.336;2022-08-01T10:23:01;2.72;;;2.42;;
12383;SDS011;6256;63.808;20.336;2022-08-01T10:25:29;2.83;;;2.00;;
12383;SDS011;6256;63.808;20.336;2022-08-01T10:28:00;3.25;;;2.05;;
12383;SDS011;6256;63.808;20.336;2022-08-01T10:30:30;3.08;;;2.00;;
12383;SDS011;6256;63.808;20.336;2022-08-01T10:32:55;4.53;;;2.28;;
12383;SDS011;6256;63.808;20.336;2022-08-01T10:35:21;2.63;;;2.13;;
12383;SDS011;6256;63.808;20.336;2022-08-01T10:37:47;3.80;;;2.17;;
12383;SDS011;6256;63.808;20.336;2022-08-01T10:40:15;2.25;;;2.03;;
12383;SDS011;6256;63.808;20.336;2022-08-01T10:42:42;2.53;;;1.90;;
12383;SDS011;6256;63.808;20.336;2022-08-01T10:45:09;3.72;;;2.00;;
12383;SDS011;6256;63.808;20.336;2022-08-01T10:58:29;2.20;;;1.95;;
12383;SDS011;6256;63.808;20.336;2022-08-01T11:04:11;3.25;;;2.10;;
12383;SDS011;6256;63.808;20.336;2022-08-01T11:06:52;2.67;;;2.00;;
12383;SDS011;6256;63.808;20.336;2022-08-01T11:09:30;3.67;;;1.92;;
12383;SDS011;6256;63.808;20.336;2022-08-01T11:12:11;3.83;;;1.80;;
12383;SDS011;6256;63.808;20.336;2022-08-01T11:20:18;2.95;;;2.00;;
12383;SDS011;6256;63.808;20.336;2022-08-01T11:30:43;3.72;;;2.00;;
12383;SDS011;6256;63.808;20.336;2022-08-01T11:33:13;2.75;;;2.30;;
12383;SDS011;6256;63.808;20.336;2022-08-01T11:39:33;2.83;;;1.90;;
12383;SDS011;6256;63.808;20.336;2022-08-01T11:41:37;2.53;;;2.00;;
12383;SDS011;6256;63.808;20.336;2022-08-01T11:46:49;2.17;;;1.80;;
12383;SDS011;6256;63.808;20.336;2022-08-01T11:52:12;2.40;;;1.60;;
12383;SDS011;6256;63.808;20.336;2022-08-01T11:57:19;4.32;;;2.00;;
12383;SDS011;6256;63.808;20.336;2022-08-01T11:59:51;2.10;;;1.48;;
12383;SDS011;6256;63.808;20.336;2022-08-01T12:02:31;2.47;;;1.77;;
12383;SDS011;6256;63.808;20.336;2022-08-01T12:05:02;3.42;;;1.77;;
12383;SDS011;6256;63.808;20.336;2022-08-01T12:07:31;2.22;;;2.13;;
12383;SDS011;6256;63.808;20.336;2022-08-01T12:10:03;2.10;;;1.90;;
12383;SDS011;6256;63.808;20.336;2022-08-01T12:12:40;2.05;;;1.73;;
12383;SDS011;6256;63.808;20.336;2022-08-01T12:15:10;1.77;;;1.58;;
12383;SDS011;6256;63.808;20.336;2022-08-01T12:20:04;2.83;;;1.80;;
12383;SDS011;6256;63.808;20.336;2022-08-01T12:22:32;2.47;;;1.80;;
12383;SDS011;6256;63.808;20.336;2022-08-01T12:25:08;2.60;;;1.90;;
12383;SDS011;6256;63.808;20.336;2022-08-01T12:27:36;1.90;;;1.70;;
12383;SDS011;6256;63.808;20.336;2022-08-01T12:30:06;1.90;;;1.70;;
12383;SDS011;6256;63.808;20.336;2022-08-01T12:32:34;3.70;;;1.70;;
12383;SDS011;6256;63.808;20.336;2022-08-01T12:37:38;1.88;;;1.63;;
12383;SDS011;6256;63.808;20.336;2022-08-01T12:40:15;2.75;;;1.42;;
12383;SDS011;6256;63.808;20.336;2022-08-01T12:42:43;2.00;;;1.50;;
12383;SDS011;6256;63.808;20.336;2022-08-01T12:45:18;2.33;;;1.55;;
12383;SDS011;6256;63.808;20.336;2022-08-01T12:47:45;2.45;;;1.45;;
12383;SDS011;6256;63.808;20.336;2022-08-01T12:50:22;1.83;;;1.73;;
12383;SDS011;6256;63.808;20.336;2022-08-01T12:52:50;1.88;;;1.60;;
12383;SDS011;6256;63.808;20.336;2022-08-01T12:55:17;2.08;;;1.13;;
12383;SDS011;6256;63.808;20.336;2022-08-01T12:57:46;1.50;;;1.40;;
12383;SDS011;6256;63.808;20.336;2022-08-01T13:00:24;1.30;;;1.20;;
12383;SDS011;6256;63.808;20.336;2022-08-01T13:03:02;3.67;;;1.30;;
12383;SDS011;6256;63.808;20.336;2022-08-01T13:08:09;1.50;;;1.40;;
12383;SDS011;6256;63.808;20.336;2022-08-01T13:10:36;2.70;;;1.50;;
12383;SDS011;6256;63.808;20.336;2022-08-01T13:13:02;1.65;;;1.45;;
12383;SDS011;6256;63.808;20.336;2022-08-01T13:15:32;1.50;;;1.40;;
12383;SDS011;6256;63.808;20.336;2022-08-01T13:18:00;2.38;;;1.42;;
12383;SDS011;6256;63.808;20.336;2022-08-01T13:20:46;1.40;;;1.30;;
12383;SDS011;6256;63.808;20.336;2022-08-01T13:23:18;2.10;;;1.13;;
12383;SDS011;6256;63.808;20.336;2022-08-01T13:28:15;2.92;;;1.17;;
12383;SDS011;6256;63.808;20.336;2022-08-01T13:30:55;1.85;;;1.38;;
12383;SDS011;6256;63.808;20.336;2022-08-01T13:33:27;2.67;;;1.80;;
12383;SDS011;6256;63.808;20.336;2022-08-01T13:36:04;2.42;;;1.33;;
12383;SDS011;6256;63.808;20.336;2022-08-01T13:38:31;1.65;;;1.40;;
12383;SDS011;6256;63.808;20.336;2022-08-01T13:41:15;2.03;;;1.30;;
12383;SDS011;6256;63.808;20.336;2022-08-01T13:43:40;1.98;;;1.48;;
12383;SDS011;6256;63.808;20.336;2022-08-01T13:46:06;3.20;;;1.30;;
12383;SDS011;6256;63.808;20.336;2022-08-01T13:48:32;2.05;;;1.30;;
12383;SDS011;6256;63.808;20.336;2022-08-01T13:50:58;1.50;;;1.40;;
12383;SDS011;6256;63.808;20.336;2022-08-01T13:53:24;1.38;;;1.15;;
12383;SDS011;6256;63.808;20.336;2022-08-01T13:55:51;3.20;;;1.65;;
12383;SDS011;6256;63.808;20.336;2022-08-01T13:58:16;1.10;;;1.00;;
12383;SDS011;6256;63.808;20.336;2022-08-01T14:00:42;1.20;;;1.10;;
12383;SDS011;6256;63.808;20.336;2022-08-01T14:03:08;2.20;;;1.40;;
12383;SDS011;6256;63.808;20.336;2022-08-01T14:05:35;1.58;;;1.30;;
12383;SDS011;6256;63.808;20.336;2022-08-01T14:08:01;1.27;;;1.17;;
12383;SDS011;6256;63.808;20.336;2022-08-01T14:10:27;1.70;;;1.60;;
12383;SDS011;6256;63.808;20.336;2022-08-01T14:12:53;2.75;;;1.40;;
12383;SDS011;6256;63.808;20.336;2022-08-01T14:15:20;1.75;;;1.50;;
12383;SDS011;6256;63.808;20.336;2022-08-01T14:17:46;1.98;;;1.50;;
12383;SDS011;6256;63.808;20.336;2022-08-01T14:20:11;1.65;;;1.17;;
12383;SDS011;6256;63.808;20.336;2022-08-01T14:22:37;1.40;;;1.30;;
12383;SDS011;6256;63.808;20.336;2022-08-01T14:25:04;1.50;;;1.30;;
12383;SDS011;6256;63.808;20.336;2022-08-01T14:27:30;1.98;;;1.30;;
12383;SDS011;6256;63.808;20.336;2022-08-01T14:29:56;4.88;;;1.23;;
12383;SDS011;6256;63.808;20.336;2022-08-01T14:32:22;2.40;;;1.50;;
12383;SDS011;6256;63.808;20.336;2022-08-01T14:34:48;3.58;;;1.15;;
12383;SDS011;6256;63.808;20.336;2022-08-01T14:37:13;2.80;;;1.40;;
12383;SDS011;6256;63.808;20.336;2022-08-01T14:39:39;2.05;;;1.30;;
12383;SDS011;6256;63.808;20.336;2022-08-01T14:42:05;1.58;;;1.42;;
12383;SDS011;6256;63.808;20.336;2022-08-01T14:44:31;1.40;;;1.30;;
12383;SDS011;6256;63.808;20.336;2022-08-01T14:46:56;1.85;;;1.65;;
12383;SDS011;6256;63.808;20.336;2022-08-01T14:49:22;7.03;;;1.60;;
12383;SDS011;6256;63.808;20.336;2022-08-01T14:51:48;2.28;;;1.40;;
12383;SDS011;6256;63.808;20.336;2022-08-01T14:54:14;4.28;;;1.40;;
12383;SDS011;6256;63.808;20.336;2022-08-01T14:56:40;2.80;;;1.20;;
12383;SDS011;6256;63.808;20.336;2022-08-01T14:59:05;1.67;;;1.48;;
12383;SDS011;6256;63.808;20.336;2022-08-01T15:01:31;2.03;;;1.20;;
12383;SDS011;6256;63.808;20.336;2022-08-01T15:03:57;1.80;;;1.30;;
12383;SDS011;6256;63.808;20.336;2022-08-01T15:06:22;1.40;;;1.27;;
12383;SDS011;6256;63.808;20.336;2022-08-01T15:08:48;1.45;;;1.23;;
12383;SDS011;6256;63.808;20.336;2022-08-01T15:11:14;1.50;;;1.38;;
12383;SDS011;6256;63.808;20.336;2022-08-01T15:13:41;3.38;;;1.20;;
12383;SDS011;6256;63.808;20.336;2022-08-01T15:16:06;2.25;;;1.30;;
12383;SDS011;6256;63.808;20.336;2022-08-01T15:18:32;1.60;;;1.30;;
12383;SDS011;6256;63.808;20.336;2022-08-01T15:20:58;1.30;;;1.20;;
12383;SDS011;6256;63.808;20.336;2022-08-01T15:23:23;1.30;;;1.20;;
12383;SDS011;6256;63.808;20.336;2022-08-01T15:25:49;3.80;;;1.30;;
12383;SDS011;6256;63.808;20.336;2022-08-01T15:28:15;2.08;;;1.60;;
12383;SDS011;6256;63.808;20.336;2022-08-01T15:30:41;3.22;;;1.55;;
12383;SDS011;6256;63.808;20.336;2022-08-01T15:33:07;3.15;;;1.50;;
12383;SDS011;6256;63.808;20.336;2022-08-01T15:35:33;2.03;;;1.83;;
12383;SDS011;6256;63.808;20.336;2022-08-01T15:37:58;2.95;;;1.10;;
12383;SDS011;6256;63.808;20.336;2022-08-01T15:40:24;2.47;;;1.30;;
12383;SDS011;6256;63.808;20.336;2022-08-01T15:42:51;2.35;;;1.40;;
12383;SDS011;6256;63.808;20.336;2022-08-01T15:45:17;2.10;;;1.40;;
12383;SDS011;6256;63.808;20.336;2022-08-01T15:47:44;2.22;;;1.30;;
12383;SDS011;6256;63.808;20.336;2022-08-01T15:50:09;2.03;;;1.20;;
12383;SDS011;6256;63.808;20.336;2022-08-01T15:52:38;1.30;;;1.13;;
12383;SDS011;6256;63.808;20.336;2022-08-01T15:55:04;1.73;;;1.33;;
12383;SDS011;6256;63.808;20.336;2022-08-01T15:57:30;1.48;;;1.20;;
12383;SDS011;6256;63.808;20.336;2022-08-01T15:59:56;2.38;;;1.30;;